sensor_id;sensor_type;location;lat;lon;timestamp;P1;durP1;ratioP1;P2;durP2;ratioP2
51048;SDS011;37084;55.228;36.450;2023-03-04T00:01:21;5.60;;;2.55;;
51048;SDS011;37084;55.228;36.450;2023-03-04T00:04:22;6.10;;;2.55;;
51048;SDS011;37084;55.228;36.450;2023-03-04T00:07:23;3.88;;;2.08;;
51048;SDS011;37084;55.228;36.450;2023-03-04T00:10:24;4.90;;;2.65;;
51048;SDS011;37084;55.228;36.450;2023-03-04T00:13:26;4.15;;;1.95;;
51048;SDS011;37084;55.228;36.450;2023-03-04T00:16:27;5.97;;;2.70;;
51048;SDS011;37084;55.228;36.450;2023-03-04T00:19:29;5.10;;;1.80;;
51048;SDS011;37084;55.228;36.450;2023-03-04T00:22:31;4.20;;;1.63;;
51048;SDS011;37084;55.228;36.450;2023-03-04T00:25:32;4.60;;;2.53;;
51048;SDS011;37084;55.228;36.450;2023-03-04T00:28:34;4.50;;;2.58;;
51048;SDS011;37084;55.228;36.450;2023-03-04T00:31:35;5.45;;;2.55;;
51048;SDS011;37084;55.228;36.450;2023-03-04T00:34:36;4.43;;;2.10;;
51048;SDS011;37084;55.228;36.450;2023-03-04T00:37:40;3.65;;;1.88;;
51048;SDS011;37084;55.228;36.450;2023-03-04T00:40:41;4.03;;;2.17;;
51048;SDS011;37084;55.228;36.450;2023-03-04T00:43:42;3.97;;;1.75;;
51048;SDS011;37084;55.228;36.450;2023-03-04T00:46:44;5.07;;;2.30;;
51048;SDS011;37084;55.228;36.450;2023-03-04T00:49:45;3.22;;;1.92;;
51048;SDS011;37084;55.228;36.450;2023-03-04T00:52:46;6.15;;;2.70;;
51048;SDS011;37084;55.228;36.450;2023-03-04T00:55:48;5.03;;;2.10;;
51048;SDS011;37084;55.228;36.450;2023-03-04T00:58:49;5.82;;;2.72;;
51048;SDS011;37084;55.228;36.450;2023-03-04T01:01:51;4.70;;;2.35;;
51048;SDS011;37084;55.228;36.450;2023-03-04T01:04:52;3.30;;;1.90;;
51048;SDS011;37084;55.228;36.450;2023-03-04T01:07:53;3.30;;;2.03;;
51048;SDS011;37084;55.228;36.450;2023-03-04T01:10:55;4.38;;;1.60;;
51048;SDS011;37084;55.228;36.450;2023-03-04T01:13:56;3.70;;;2.10;;
51048;SDS011;37084;55.228;36.450;2023-03-04T01:16:57;4.13;;;2.08;;
51048;SDS011;37084;55.228;36.450;2023-03-04T01:19:59;5.72;;;2.13;;
51048;SDS011;37084;55.228;36.450;2023-03-04T01:23:00;2.97;;;2.10;;
51048;SDS011;37084;55.228;36.450;2023-03-04T01:26:01;5.20;;;2.53;;
51048;SDS011;37084;55.228;36.450;2023-03-04T01:29:03;2.50;;;1.83;;
51048;SDS011;37084;55.228;36.450;2023-03-04T01:32:04;2.70;;;1.67;;
51048;SDS011;37084;55.228;36.450;2023-03-04T01:35:06;2.78;;;1.88;;
51048;SDS011;37084;55.228;36.450;2023-03-04T01:38:08;3.65;;;2.88;;
51048;SDS011;37084;55.228;36.450;2023-03-04T01:41:10;2.65;;;2.20;;
51048;SDS011;37084;55.228;36.450;2023-03-04T01:44:12;2.80;;;1.83;;
51048;SDS011;37084;55.228;36.450;2023-03-04T01:47:14;5.60;;;1.85;;
51048;SDS011;37084;55.228;36.450;2023-03-04T01:50:18;2.45;;;1.90;;
51048;SDS011;37084;55.228;36.450;2023-03-04T01:53:40;3.60;;;2.55;;
51048;SDS011;37084;55.228;36.450;2023-03-04T01:56:43;3.25;;;2.08;;
51048;SDS011;37084;55.228;36.450;2023-03-04T01:59:45;4.93;;;2.10;;
51048;SDS011;37084;55.228;36.450;2023-03-04T02:02:49;5.45;;;2.60;;
51048;SDS011;37084;55.228;36.450;2023-03-04T02:05:51;5.15;;;2.63;;
51048;SDS011;37084;55.228;36.450;2023-03-04T02:08:54;4.18;;;2.40;;
51048;SDS011;37084;55.228;36.450;2023-03-04T02:11:56;4.38;;;2.40;;
51048;SDS011;37084;55.228;36.450;2023-03-04T02:14:58;3.83;;;2.08;;
51048;SDS011;37084;55.228;36.450;2023-03-04T02:17:59;4.00;;;2.40;;
51048;SDS011;37084;55.228;36.450;2023-03-04T02:27:43;4.20;;;2.42;;
51048;SDS011;37084;55.228;36.450;2023-03-04T02:30:44;4.45;;;2.28;;
51048;SDS011;37084;55.228;36.450;2023-03-04T02:33:46;3.72;;;2.17;;
51048;SDS011;37084;55.228;36.450;2023-03-04T02:36:48;5.53;;;2.40;;
51048;SDS011;37084;55.228;36.450;2023-03-04T02:39:51;5.35;;;2.53;;
51048;SDS011;37084;55.228;36.450;2023-03-04T02:42:52;7.00;;;2.03;;
51048;SDS011;37084;55.228;36.450;2023-03-04T02:45:54;6.78;;;2.30;;
51048;SDS011;37084;55.228;36.450;2023-03-04T02:48:55;3.38;;;2.33;;
51048;SDS011;37084;55.228;36.450;2023-03-04T02:52:06;4.13;;;2.33;;
51048;SDS011;37084;55.228;36.450;2023-03-04T02:55:09;8.13;;;3.90;;
51048;SDS011;37084;55.228;36.450;2023-03-04T02:58:11;7.07;;;3.08;;
51048;SDS011;37084;55.228;36.450;2023-03-04T03:01:14;8.93;;;4.38;;
51048;SDS011;37084;55.228;36.450;2023-03-04T03:04:16;4.38;;;2.42;;
51048;SDS011;37084;55.228;36.450;2023-03-04T03:07:18;6.45;;;2.90;;
51048;SDS011;37084;55.228;36.450;2023-03-04T03:10:19;6.40;;;3.08;;
51048;SDS011;37084;55.228;36.450;2023-03-04T03:13:21;9.93;;;4.70;;
51048;SDS011;37084;55.228;36.450;2023-03-04T03:16:23;5.18;;;3.15;;
51048;SDS011;37084;55.228;36.450;2023-03-04T03:19:24;4.18;;;2.53;;
51048;SDS011;37084;55.228;36.450;2023-03-04T03:22:27;5.53;;;2.40;;
51048;SDS011;37084;55.228;36.450;2023-03-04T03:25:28;5.60;;;2.65;;
51048;SDS011;37084;55.228;36.450;2023-03-04T03:28:30;4.25;;;2.47;;
51048;SDS011;37084;55.228;36.450;2023-03-04T03:31:31;4.63;;;2.53;;
51048;SDS011;37084;55.228;36.450;2023-03-04T03:34:32;6.70;;;2.63;;
51048;SDS011;37084;55.228;36.450;2023-03-04T03:37:34;3.80;;;2.47;;
51048;SDS011;37084;55.228;36.450;2023-03-04T03:40:35;4.90;;;2.22;;
51048;SDS011;37084;55.228;36.450;2023-03-04T03:43:36;4.75;;;2.22;;
51048;SDS011;37084;55.228;36.450;2023-03-04T03:46:38;6.15;;;3.08;;
51048;SDS011;37084;55.228;36.450;2023-03-04T03:49:39;4.38;;;2.03;;
51048;SDS011;37084;55.228;36.450;2023-03-04T03:52:40;4.63;;;2.72;;
51048;SDS011;37084;55.228;36.450;2023-03-04T03:55:41;7.00;;;2.30;;
51048;SDS011;37084;55.228;36.450;2023-03-04T03:58:43;9.07;;;3.05;;
51048;SDS011;37084;55.228;36.450;2023-03-04T04:01:44;6.50;;;2.63;;
51048;SDS011;37084;55.228;36.450;2023-03-04T04:04:45;6.28;;;2.55;;
51048;SDS011;37084;55.228;36.450;2023-03-04T04:07:46;6.38;;;3.42;;
51048;SDS011;37084;55.228;36.450;2023-03-04T04:10:47;6.50;;;3.33;;
51048;SDS011;37084;55.228;36.450;2023-03-04T04:13:49;7.20;;;3.13;;
51048;SDS011;37084;55.228;36.450;2023-03-04T04:16:50;5.75;;;3.13;;
51048;SDS011;37084;55.228;36.450;2023-03-04T04:19:51;6.72;;;3.17;;
51048;SDS011;37084;55.228;36.450;2023-03-04T04:22:52;6.35;;;2.67;;
51048;SDS011;37084;55.228;36.450;2023-03-04T04:25:54;8.55;;;3.17;;
51048;SDS011;37084;55.228;36.450;2023-03-04T04:28:56;6.10;;;3.03;;
51048;SDS011;37084;55.228;36.450;2023-03-04T04:31:57;6.55;;;3.22;;
51048;SDS011;37084;55.228;36.450;2023-03-04T04:34:58;7.70;;;3.00;;
51048;SDS011;37084;55.228;36.450;2023-03-04T04:38:00;5.93;;;2.70;;
51048;SDS011;37084;55.228;36.450;2023-03-04T04:41:01;7.43;;;3.70;;
51048;SDS011;37084;55.228;36.450;2023-03-04T04:44:02;5.13;;;2.47;;
51048;SDS011;37084;55.228;36.450;2023-03-04T04:47:04;6.40;;;3.72;;
51048;SDS011;37084;55.228;36.450;2023-03-04T04:50:06;8.73;;;3.30;;
51048;SDS011;37084;55.228;36.450;2023-03-04T04:53:11;7.13;;;3.30;;
51048;SDS011;37084;55.228;36.450;2023-03-04T04:56:14;6.43;;;3.17;;
51048;SDS011;37084;55.228;36.450;2023-03-04T04:59:18;9.07;;;4.05;;
51048;SDS011;37084;55.228;36.450;2023-03-04T05:02:19;6.95;;;3.63;;
51048;SDS011;37084;55.228;36.450;2023-03-04T05:05:20;7.32;;;3.28;;
51048;SDS011;37084;55.228;36.450;2023-03-04T05:08:21;6.30;;;2.95;;
51048;SDS011;37084;55.228;36.450;2023-03-04T05:11:23;6.57;;;2.83;;
51048;SDS011;37084;55.228;36.450;2023-03-04T05:14:24;5.72;;;3.10;;
51048;SDS011;37084;55.228;36.450;2023-03-04T05:17:25;5.00;;;2.78;;
51048;SDS011;37084;55.228;36.450;2023-03-04T05:20:26;3.83;;;2.42;;
51048;SDS011;37084;55.228;36.450;2023-03-04T05:23:29;4.68;;;2.50;;
51048;SDS011;37084;55.228;36.450;2023-03-04T05:26:31;6.72;;;3.33;;
51048;SDS011;37084;55.228;36.450;2023-03-04T05:29:32;8.05;;;3.17;;
51048;SDS011;37084;55.228;36.450;2023-03-04T05:32:34;3.05;;;1.90;;
51048;SDS011;37084;55.228;36.450;2023-03-04T05:35:35;5.43;;;3.28;;
51048;SDS011;37084;55.228;36.450;2023-03-04T05:38:37;4.70;;;2.25;;
51048;SDS011;37084;55.228;36.450;2023-03-04T05:41:38;4.75;;;2.30;;
51048;SDS011;37084;55.228;36.450;2023-03-04T05:44:40;6.70;;;2.95;;
51048;SDS011;37084;55.228;36.450;2023-03-04T05:47:41;5.53;;;3.20;;
51048;SDS011;37084;55.228;36.450;2023-03-04T05:50:42;5.50;;;2.78;;
51048;SDS011;37084;55.228;36.450;2023-03-04T05:53:43;2.92;;;2.53;;
51048;SDS011;37084;55.228;36.450;2023-03-04T05:56:44;4.50;;;2.67;;
51048;SDS011;37084;55.228;36.450;2023-03-04T05:59:46;4.30;;;2.78;;
51048;SDS011;37084;55.228;36.450;2023-03-04T06:02:47;3.55;;;2.35;;
51048;SDS011;37084;55.228;36.450;2023-03-04T06:05:48;2.08;;;1.63;;
51048;SDS011;37084;55.228;36.450;2023-03-04T06:08:49;4.00;;;2.33;;
51048;SDS011;37084;55.228;36.450;2023-03-04T06:11:50;1.85;;;1.60;;
51048;SDS011;37084;55.228;36.450;2023-03-04T06:14:52;2.10;;;1.42;;
51048;SDS011;37084;55.228;36.450;2023-03-04T06:17:53;2.45;;;1.73;;
51048;SDS011;37084;55.228;36.450;2023-03-04T06:21:03;4.32;;;2.20;;
51048;SDS011;37084;55.228;36.450;2023-03-04T06:24:05;5.13;;;2.38;;
51048;SDS011;37084;55.228;36.450;2023-03-04T06:27:06;6.70;;;2.47;;
51048;SDS011;37084;55.228;36.450;2023-03-04T06:30:07;2.42;;;1.70;;
51048;SDS011;37084;55.228;36.450;2023-03-04T06:33:10;3.88;;;2.00;;
51048;SDS011;37084;55.228;36.450;2023-03-04T06:36:11;3.85;;;2.13;;
51048;SDS011;37084;55.228;36.450;2023-03-04T06:39:12;3.97;;;1.60;;
51048;SDS011;37084;55.228;36.450;2023-03-04T06:42:14;3.17;;;2.00;;
51048;SDS011;37084;55.228;36.450;2023-03-04T06:45:15;1.55;;;1.10;;
51048;SDS011;37084;55.228;36.450;2023-03-04T06:48:17;2.33;;;1.88;;
51048;SDS011;37084;55.228;36.450;2023-03-04T06:51:18;2.75;;;1.60;;
51048;SDS011;37084;55.228;36.450;2023-03-04T06:54:19;2.13;;;1.77;;
51048;SDS011;37084;55.228;36.450;2023-03-04T06:57:21;3.60;;;2.00;;
51048;SDS011;37084;55.228;36.450;2023-03-04T07:00:22;2.60;;;2.40;;
51048;SDS011;37084;55.228;36.450;2023-03-04T07:03:26;1.73;;;1.33;;
51048;SDS011;37084;55.228;36.450;2023-03-04T07:06:27;1.85;;;1.38;;
51048;SDS011;37084;55.228;36.450;2023-03-04T07:09:28;1.20;;;1.10;;
51048;SDS011;37084;55.228;36.450;2023-03-04T07:12:30;2.92;;;1.77;;
51048;SDS011;37084;55.228;36.450;2023-03-04T07:15:31;2.42;;;1.52;;
51048;SDS011;37084;55.228;36.450;2023-03-04T07:18:32;1.23;;;1.13;;
51048;SDS011;37084;55.228;36.450;2023-03-04T07:21:34;1.67;;;1.40;;
51048;SDS011;37084;55.228;36.450;2023-03-04T07:24:35;2.00;;;1.65;;
51048;SDS011;37084;55.228;36.450;2023-03-04T07:27:36;1.23;;;1.10;;
51048;SDS011;37084;55.228;36.450;2023-03-04T07:30:40;2.90;;;1.40;;
51048;SDS011;37084;55.228;36.450;2023-03-04T07:33:42;1.65;;;1.33;;
51048;SDS011;37084;55.228;36.450;2023-03-04T07:36:43;1.60;;;1.45;;
51048;SDS011;37084;55.228;36.450;2023-03-04T07:39:44;2.45;;;1.80;;
51048;SDS011;37084;55.228;36.450;2023-03-04T07:42:52;2.00;;;1.58;;
51048;SDS011;37084;55.228;36.450;2023-03-04T07:45:58;1.77;;;1.60;;
51048;SDS011;37084;55.228;36.450;2023-03-04T07:49:00;1.73;;;1.02;;
51048;SDS011;37084;55.228;36.450;2023-03-04T07:52:03;1.35;;;1.30;;
51048;SDS011;37084;55.228;36.450;2023-03-04T07:55:05;2.60;;;1.67;;
51048;SDS011;37084;55.228;36.450;2023-03-04T07:58:06;0.85;;;0.80;;
51048;SDS011;37084;55.228;36.450;2023-03-04T08:01:11;1.48;;;1.38;;
51048;SDS011;37084;55.228;36.450;2023-03-04T08:04:32;1.70;;;1.60;;
51048;SDS011;37084;55.228;36.450;2023-03-04T08:07:33;2.03;;;1.27;;
51048;SDS011;37084;55.228;36.450;2023-03-04T08:10:35;2.45;;;1.55;;
51048;SDS011;37084;55.228;36.450;2023-03-04T08:13:39;1.42;;;1.00;;
51048;SDS011;37084;55.228;36.450;2023-03-04T08:16:40;1.75;;;1.13;;
51048;SDS011;37084;55.228;36.450;2023-03-04T08:19:41;1.40;;;1.10;;
51048;SDS011;37084;55.228;36.450;2023-03-04T08:22:43;1.85;;;1.73;;
51048;SDS011;37084;55.228;36.450;2023-03-04T08:25:44;1.33;;;1.15;;
51048;SDS011;37084;55.228;36.450;2023-03-04T08:28:46;1.55;;;1.42;;
51048;SDS011;37084;55.228;36.450;2023-03-04T08:31:48;2.17;;;1.02;;
51048;SDS011;37084;55.228;36.450;2023-03-04T08:34:51;1.67;;;1.42;;
51048;SDS011;37084;55.228;36.450;2023-03-04T08:37:52;1.35;;;1.23;;
51048;SDS011;37084;55.228;36.450;2023-03-04T08:40:54;1.35;;;1.25;;
51048;SDS011;37084;55.228;36.450;2023-03-04T08:43:56;2.00;;;1.48;;
51048;SDS011;37084;55.228;36.450;2023-03-04T08:46:58;1.50;;;1.40;;
51048;SDS011;37084;55.228;36.450;2023-03-04T08:49:59;3.35;;;2.10;;
51048;SDS011;37084;55.228;36.450;2023-03-04T08:53:01;1.20;;;1.02;;
51048;SDS011;37084;55.228;36.450;2023-03-04T08:56:02;1.95;;;1.77;;
51048;SDS011;37084;55.228;36.450;2023-03-04T08:59:04;1.60;;;1.50;;
51048;SDS011;37084;55.228;36.450;2023-03-04T09:02:05;1.70;;;1.42;;
51048;SDS011;37084;55.228;36.450;2023-03-04T09:05:07;2.67;;;1.67;;
51048;SDS011;37084;55.228;36.450;2023-03-04T09:08:08;1.67;;;1.58;;
51048;SDS011;37084;55.228;36.450;2023-03-04T09:11:10;1.55;;;1.38;;
51048;SDS011;37084;55.228;36.450;2023-03-04T09:14:11;1.38;;;1.27;;
51048;SDS011;37084;55.228;36.450;2023-03-04T09:17:13;3.72;;;1.77;;
51048;SDS011;37084;55.228;36.450;2023-03-04T09:20:16;1.88;;;1.20;;
51048;SDS011;37084;55.228;36.450;2023-03-04T09:23:17;1.63;;;1.20;;
51048;SDS011;37084;55.228;36.450;2023-03-04T09:26:25;1.77;;;1.30;;
51048;SDS011;37084;55.228;36.450;2023-03-04T09:29:28;1.65;;;1.55;;
51048;SDS011;37084;55.228;36.450;2023-03-04T09:32:29;2.15;;;1.85;;
51048;SDS011;37084;55.228;36.450;2023-03-04T09:35:30;2.15;;;1.50;;
51048;SDS011;37084;55.228;36.450;2023-03-04T09:38:34;2.65;;;1.90;;
51048;SDS011;37084;55.228;36.450;2023-03-04T09:44:46;3.38;;;2.00;;
51048;SDS011;37084;55.228;36.450;2023-03-04T09:47:48;3.58;;;1.80;;
51048;SDS011;37084;55.228;36.450;2023-03-04T09:51:00;1.65;;;1.48;;
51048;SDS011;37084;55.228;36.450;2023-03-04T09:54:07;2.60;;;1.77;;
51048;SDS011;37084;55.228;36.450;2023-03-04T10:00:19;2.92;;;1.88;;
51048;SDS011;37084;55.228;36.450;2023-03-04T10:03:24;2.58;;;1.63;;
51048;SDS011;37084;55.228;36.450;2023-03-04T10:06:43;3.25;;;1.95;;
51048;SDS011;37084;55.228;36.450;2023-03-04T10:09:53;2.08;;;1.88;;
51048;SDS011;37084;55.228;36.450;2023-03-04T10:12:57;4.95;;;2.90;;
51048;SDS011;37084;55.228;36.450;2023-03-04T10:16:01;6.25;;;3.67;;
51048;SDS011;37084;55.228;36.450;2023-03-04T10:22:25;4.22;;;1.80;;
51048;SDS011;37084;55.228;36.450;2023-03-04T10:25:28;2.25;;;1.88;;
51048;SDS011;37084;55.228;36.450;2023-03-04T10:28:31;3.25;;;1.92;;
51048;SDS011;37084;55.228;36.450;2023-03-04T10:31:37;1.73;;;1.63;;
51048;SDS011;37084;55.228;36.450;2023-03-04T10:34:41;2.88;;;1.85;;
51048;SDS011;37084;55.228;36.450;2023-03-04T10:37:44;3.22;;;2.88;;
51048;SDS011;37084;55.228;36.450;2023-03-04T10:40:48;2.45;;;1.75;;
51048;SDS011;37084;55.228;36.450;2023-03-04T10:44:00;2.85;;;2.22;;
51048;SDS011;37084;55.228;36.450;2023-03-04T10:50:03;2.47;;;1.77;;
51048;SDS011;37084;55.228;36.450;2023-03-04T10:53:09;2.53;;;1.40;;
51048;SDS011;37084;55.228;36.450;2023-03-04T10:56:30;4.25;;;2.15;;
51048;SDS011;37084;55.228;36.450;2023-03-04T11:03:44;2.47;;;2.08;;
51048;SDS011;37084;55.228;36.450;2023-03-04T11:06:30;5.35;;;3.13;;
51048;SDS011;37084;55.228;36.450;2023-03-04T11:09:32;2.30;;;1.92;;
51048;SDS011;37084;55.228;36.450;2023-03-04T11:12:33;4.35;;;2.20;;
51048;SDS011;37084;55.228;36.450;2023-03-04T11:15:49;3.67;;;2.22;;
51048;SDS011;37084;55.228;36.450;2023-03-04T11:18:51;2.90;;;2.45;;
51048;SDS011;37084;55.228;36.450;2023-03-04T11:21:54;3.08;;;1.50;;
51048;SDS011;37084;55.228;36.450;2023-03-04T11:25:02;3.50;;;2.30;;
51048;SDS011;37084;55.228;36.450;2023-03-04T11:28:23;3.10;;;2.13;;
51048;SDS011;37084;55.228;36.450;2023-03-04T11:38:18;4.28;;;2.08;;
51048;SDS011;37084;55.228;36.450;2023-03-04T11:41:35;2.40;;;1.80;;
51048;SDS011;37084;55.228;36.450;2023-03-04T11:44:43;3.42;;;2.35;;
51048;SDS011;37084;55.228;36.450;2023-03-04T11:54:15;4.57;;;2.00;;
51048;SDS011;37084;55.228;36.450;2023-03-04T11:57:22;5.68;;;2.35;;
51048;SDS011;37084;55.228;36.450;2023-03-04T12:03:57;4.00;;;2.78;;
51048;SDS011;37084;55.228;36.450;2023-03-04T12:07:35;3.42;;;1.98;;
51048;SDS011;37084;55.228;36.450;2023-03-04T12:10:54;1.83;;;1.67;;
51048;SDS011;37084;55.228;36.450;2023-03-04T12:18:17;5.78;;;3.67;;
51048;SDS011;37084;55.228;36.450;2023-03-04T12:32:02;2.20;;;2.00;;
51048;SDS011;37084;55.228;36.450;2023-03-04T12:42:11;3.65;;;2.47;;
51048;SDS011;37084;55.228;36.450;2023-03-04T12:45:19;3.30;;;2.67;;
51048;SDS011;37084;55.228;36.450;2023-03-04T12:48:30;3.42;;;2.20;;
51048;SDS011;37084;55.228;36.450;2023-03-04T12:51:48;5.20;;;3.08;;
51048;SDS011;37084;55.228;36.450;2023-03-04T12:55:28;3.15;;;2.15;;
51048;SDS011;37084;55.228;36.450;2023-03-04T12:58:29;3.75;;;2.83;;
51048;SDS011;37084;55.228;36.450;2023-03-04T13:01:36;3.38;;;2.38;;
51048;SDS011;37084;55.228;36.450;2023-03-04T13:14:31;2.40;;;2.00;;
51048;SDS011;37084;55.228;36.450;2023-03-04T13:20:39;2.97;;;2.33;;
51048;SDS011;37084;55.228;36.450;2023-03-04T13:23:41;3.10;;;2.80;;
51048;SDS011;37084;55.228;36.450;2023-03-04T13:26:42;3.75;;;2.80;;
51048;SDS011;37084;55.228;36.450;2023-03-04T13:29:43;6.18;;;3.38;;
51048;SDS011;37084;55.228;36.450;2023-03-04T13:32:45;20.45;;;7.38;;
51048;SDS011;37084;55.228;36.450;2023-03-04T13:39:24;8.05;;;3.97;;
51048;SDS011;37084;55.228;36.450;2023-03-04T13:42:38;5.97;;;3.53;;
51048;SDS011;37084;55.228;36.450;2023-03-04T13:45:41;5.38;;;3.33;;
51048;SDS011;37084;55.228;36.450;2023-03-04T13:49:04;3.05;;;2.38;;
51048;SDS011;37084;55.228;36.450;2023-03-04T13:55:40;4.70;;;3.17;;
51048;SDS011;37084;55.228;36.450;2023-03-04T13:58:43;3.42;;;2.22;;
51048;SDS011;37084;55.228;36.450;2023-03-04T14:07:54;3.90;;;2.03;;
51048;SDS011;37084;55.228;36.450;2023-03-04T14:10:55;5.28;;;2.97;;
51048;SDS011;37084;55.228;36.450;2023-03-04T14:13:58;6.32;;;2.85;;
51048;SDS011;37084;55.228;36.450;2023-03-04T14:17:01;3.33;;;2.70;;
51048;SDS011;37084;55.228;36.450;2023-03-04T14:20:06;4.95;;;2.67;;
51048;SDS011;37084;55.228;36.450;2023-03-04T14:23:34;5.35;;;2.88;;
51048;SDS011;37084;55.228;36.450;2023-03-04T14:29:37;5.45;;;2.58;;
51048;SDS011;37084;55.228;36.450;2023-03-04T14:32:40;3.70;;;2.03;;
51048;SDS011;37084;55.228;36.450;2023-03-04T14:35:49;4.05;;;2.15;;
51048;SDS011;37084;55.228;36.450;2023-03-04T14:38:55;5.53;;;3.13;;
51048;SDS011;37084;55.228;36.450;2023-03-04T14:42:00;3.55;;;1.98;;
51048;SDS011;37084;55.228;36.450;2023-03-04T14:45:04;4.85;;;2.97;;
51048;SDS011;37084;55.228;36.450;2023-03-04T14:48:06;4.63;;;2.70;;
51048;SDS011;37084;55.228;36.450;2023-03-04T14:51:26;7.72;;;3.35;;
51048;SDS011;37084;55.228;36.450;2023-03-04T14:54:36;4.80;;;2.65;;
51048;SDS011;37084;55.228;36.450;2023-03-04T14:57:39;4.22;;;2.67;;
51048;SDS011;37084;55.228;36.450;2023-03-04T15:00:46;5.38;;;2.72;;
51048;SDS011;37084;55.228;36.450;2023-03-04T15:03:56;4.13;;;2.60;;
51048;SDS011;37084;55.228;36.450;2023-03-04T15:07:11;4.43;;;2.72;;
51048;SDS011;37084;55.228;36.450;2023-03-04T15:10:18;4.35;;;2.42;;
51048;SDS011;37084;55.228;36.450;2023-03-04T15:13:38;2.83;;;1.80;;
51048;SDS011;37084;55.228;36.450;2023-03-04T15:16:51;4.13;;;2.08;;
51048;SDS011;37084;55.228;36.450;2023-03-04T15:19:59;4.10;;;2.65;;
51048;SDS011;37084;55.228;36.450;2023-03-04T15:23:23;3.25;;;2.17;;
51048;SDS011;37084;55.228;36.450;2023-03-04T15:26:24;1.88;;;1.40;;
51048;SDS011;37084;55.228;36.450;2023-03-04T15:29:27;3.90;;;2.17;;
51048;SDS011;37084;55.228;36.450;2023-03-04T15:32:29;1.25;;;1.20;;
51048;SDS011;37084;55.228;36.450;2023-03-04T15:35:31;1.90;;;1.33;;
51048;SDS011;37084;55.228;36.450;2023-03-04T15:38:33;3.33;;;1.77;;
51048;SDS011;37084;55.228;36.450;2023-03-04T15:41:34;2.58;;;1.42;;
51048;SDS011;37084;55.228;36.450;2023-03-04T15:44:35;3.67;;;2.03;;
51048;SDS011;37084;55.228;36.450;2023-03-04T15:47:37;3.10;;;1.73;;
51048;SDS011;37084;55.228;36.450;2023-03-04T15:50:40;3.88;;;1.95;;
51048;SDS011;37084;55.228;36.450;2023-03-04T15:53:54;2.90;;;1.98;;
51048;SDS011;37084;55.228;36.450;2023-03-04T15:56:57;3.22;;;1.83;;
51048;SDS011;37084;55.228;36.450;2023-03-04T15:59:59;4.28;;;1.83;;
51048;SDS011;37084;55.228;36.450;2023-03-04T16:03:00;2.13;;;1.23;;
51048;SDS011;37084;55.228;36.450;2023-03-04T16:06:04;4.50;;;2.53;;
51048;SDS011;37084;55.228;36.450;2023-03-04T16:09:12;3.28;;;2.30;;
51048;SDS011;37084;55.228;36.450;2023-03-04T16:12:16;2.67;;;1.92;;
51048;SDS011;37084;55.228;36.450;2023-03-04T16:15:23;3.28;;;2.03;;
51048;SDS011;37084;55.228;36.450;2023-03-04T16:18:26;3.53;;;1.88;;
51048;SDS011;37084;55.228;36.450;2023-03-04T16:21:27;4.47;;;2.35;;
51048;SDS011;37084;55.228;36.450;2023-03-04T16:24:29;4.07;;;2.10;;
51048;SDS011;37084;55.228;36.450;2023-03-04T16:27:32;4.28;;;2.10;;
51048;SDS011;37084;55.228;36.450;2023-03-04T16:30:33;3.47;;;2.65;;
51048;SDS011;37084;55.228;36.450;2023-03-04T16:33:35;6.95;;;2.72;;
51048;SDS011;37084;55.228;36.450;2023-03-04T16:36:36;3.35;;;2.05;;
51048;SDS011;37084;55.228;36.450;2023-03-04T16:39:37;3.80;;;2.60;;
51048;SDS011;37084;55.228;36.450;2023-03-04T16:42:40;4.38;;;2.50;;
51048;SDS011;37084;55.228;36.450;2023-03-04T16:45:42;7.40;;;3.28;;
51048;SDS011;37084;55.228;36.450;2023-03-04T16:48:43;3.60;;;1.95;;
51048;SDS011;37084;55.228;36.450;2023-03-04T16:51:47;3.47;;;2.05;;
51048;SDS011;37084;55.228;36.450;2023-03-04T16:54:49;2.95;;;2.05;;
51048;SDS011;37084;55.228;36.450;2023-03-04T16:57:51;4.00;;;1.92;;
51048;SDS011;37084;55.228;36.450;2023-03-04T17:00:53;3.45;;;2.15;;
51048;SDS011;37084;55.228;36.450;2023-03-04T17:03:55;2.67;;;1.33;;
51048;SDS011;37084;55.228;36.450;2023-03-04T17:06:56;2.05;;;1.00;;
51048;SDS011;37084;55.228;36.450;2023-03-04T17:09:58;1.77;;;1.08;;
51048;SDS011;37084;55.228;36.450;2023-03-04T17:13:00;1.33;;;1.20;;
51048;SDS011;37084;55.228;36.450;2023-03-04T17:16:01;0.80;;;0.80;;
51048;SDS011;37084;55.228;36.450;2023-03-04T17:19:02;0.60;;;0.60;;
51048;SDS011;37084;55.228;36.450;2023-03-04T17:22:04;0.50;;;0.50;;
51048;SDS011;37084;55.228;36.450;2023-03-04T17:25:05;0.98;;;0.98;;
51048;SDS011;37084;55.228;36.450;2023-03-04T17:28:07;0.95;;;0.88;;
51048;SDS011;37084;55.228;36.450;2023-03-04T17:31:09;0.70;;;0.70;;
51048;SDS011;37084;55.228;36.450;2023-03-04T17:34:11;1.08;;;0.60;;
51048;SDS011;37084;55.228;36.450;2023-03-04T17:37:13;0.63;;;0.60;;
51048;SDS011;37084;55.228;36.450;2023-03-04T17:40:15;0.80;;;0.80;;
51048;SDS011;37084;55.228;36.450;2023-03-04T17:43:16;0.85;;;0.63;;
51048;SDS011;37084;55.228;36.450;2023-03-04T17:46:18;0.98;;;0.85;;
51048;SDS011;37084;55.228;36.450;2023-03-04T17:49:21;1.38;;;0.93;;
51048;SDS011;37084;55.228;36.450;2023-03-04T17:52:22;0.80;;;0.65;;
51048;SDS011;37084;55.228;36.450;2023-03-04T17:55:23;0.95;;;0.95;;
51048;SDS011;37084;55.228;36.450;2023-03-04T17:58:25;1.65;;;0.95;;
51048;SDS011;37084;55.228;36.450;2023-03-04T18:01:27;1.25;;;0.70;;
51048;SDS011;37084;55.228;36.450;2023-03-04T18:04:28;0.63;;;0.63;;
51048;SDS011;37084;55.228;36.450;2023-03-04T18:07:29;2.00;;;0.80;;
51048;SDS011;37084;55.228;36.450;2023-03-04T18:10:31;0.63;;;0.63;;
51048;SDS011;37084;55.228;36.450;2023-03-04T18:13:32;1.00;;;0.75;;
51048;SDS011;37084;55.228;36.450;2023-03-04T18:16:33;0.70;;;0.65;;
51048;SDS011;37084;55.228;36.450;2023-03-04T18:19:35;0.80;;;0.80;;
51048;SDS011;37084;55.228;36.450;2023-03-04T18:22:36;0.95;;;0.90;;
51048;SDS011;37084;55.228;36.450;2023-03-04T18:25:37;0.82;;;0.77;;
51048;SDS011;37084;55.228;36.450;2023-03-04T18:28:39;1.35;;;1.25;;
51048;SDS011;37084;55.228;36.450;2023-03-04T18:31:40;1.05;;;0.93;;
51048;SDS011;37084;55.228;36.450;2023-03-04T18:34:41;1.35;;;1.30;;
51048;SDS011;37084;55.228;36.450;2023-03-04T18:37:43;0.90;;;0.90;;
51048;SDS011;37084;55.228;36.450;2023-03-04T18:40:45;1.20;;;1.10;;
51048;SDS011;37084;55.228;36.450;2023-03-04T18:43:46;1.55;;;0.98;;
51048;SDS011;37084;55.228;36.450;2023-03-04T18:46:51;1.20;;;1.13;;
51048;SDS011;37084;55.228;36.450;2023-03-04T18:49:53;1.70;;;0.80;;
51048;SDS011;37084;55.228;36.450;2023-03-04T18:52:55;2.97;;;1.00;;
51048;SDS011;37084;55.228;36.450;2023-03-04T18:55:57;1.33;;;1.23;;
51048;SDS011;37084;55.228;36.450;2023-03-04T18:59:29;1.60;;;1.00;;
51048;SDS011;37084;55.228;36.450;2023-03-04T19:02:41;1.75;;;0.85;;
51048;SDS011;37084;55.228;36.450;2023-03-04T19:05:47;1.60;;;0.73;;
51048;SDS011;37084;55.228;36.450;2023-03-04T19:08:49;1.15;;;0.95;;
51048;SDS011;37084;55.228;36.450;2023-03-04T19:11:54;1.10;;;0.88;;
51048;SDS011;37084;55.228;36.450;2023-03-04T19:14:56;1.77;;;0.90;;
51048;SDS011;37084;55.228;36.450;2023-03-04T19:17:58;0.73;;;0.73;;
51048;SDS011;37084;55.228;36.450;2023-03-04T19:20:59;1.38;;;1.08;;
51048;SDS011;37084;55.228;36.450;2023-03-04T19:24:01;0.95;;;0.77;;
51048;SDS011;37084;55.228;36.450;2023-03-04T19:27:02;1.58;;;1.10;;
51048;SDS011;37084;55.228;36.450;2023-03-04T19:30:05;0.60;;;0.60;;
51048;SDS011;37084;55.228;36.450;2023-03-04T19:33:07;1.73;;;1.25;;
51048;SDS011;37084;55.228;36.450;2023-03-04T19:36:09;1.02;;;1.02;;
51048;SDS011;37084;55.228;36.450;2023-03-04T19:39:11;2.15;;;0.90;;